Time;durP1;ratioP1;P1;durP2;ratioP2;P2;SDS_P1;SDS_P2;PMS_P1;PMS_P2;Temp;Humidity;BMP_temperature;BMP_pressure;BME280_temperature;BME280_humidity;BME280_pressure;Samples;Min_cycle;Max_cycle;Signal;HPM_P1;HPM_P2
2024/04/09 00:01:51;;;;;;;11.73;5.40;;;;;;;16.23;100.00;99786.59;5217564;27;20032;-88
2024/04/09 00:04:17;;;;;;;8.75;5.15;;;;;;;16.21;100.00;99778.72;5206786;27;20019;-87
2024/04/09 00:06:45;;;;;;;8.93;5.30;;;;;;;16.23;100.00;99783.94;5215510;27;20018;-86
2024/04/09 00:09:11;;;;;;;9.23;4.90;;;;;;;16.23;100.00;99796.28;5216162;27;20457;-87
2024/04/09 00:11:43;;;;;;;9.02;6.00;;;;;;;16.27;100.00;99796.06;5192978;27;20043;-87
2024/04/09 00:14:08;;;;;;;10.32;5.43;;;;;;;16.26;100.00;99780.31;5218576;27;20003;-87
2024/04/09 00:16:39;;;;;;;8.55;4.57;;;;;;;16.20;100.00;99777.03;5214174;27;20007;-87
2024/04/09 00:19:07;;;;;;;13.00;5.47;;;;;;;16.14;100.00;99774.66;5190808;27;19999;-85
2024/04/09 00:21:35;;;;;;;14.88;5.43;;;;;;;16.17;100.00;99773.66;5216845;27;20063;-88
2024/04/09 00:24:00;;;;;;;16.55;6.93;;;;;;;16.19;100.00;99777.06;5191344;27;20003;-88
2024/04/09 00:26:31;;;;;;;10.25;5.68;;;;;;;16.20;100.00;99765.59;5182558;27;20000;-88
2024/04/09 00:28:57;;;;;;;10.43;5.30;;;;;;;16.09;100.00;99778.41;5189694;27;20000;-89
2024/04/09 00:31:27;;;;;;;10.13;5.25;;;;;;;16.06;100.00;99760.09;5198112;27;20003;-86
2024/04/09 00:33:53;;;;;;;11.38;6.15;;;;;;;16.07;100.00;99759.16;5163790;27;20470;-86
2024/04/09 00:36:21;;;;;;;11.57;6.72;;;;;;;16.05;100.00;99767.16;5217576;27;20003;-87
2024/04/09 00:38:47;;;;;;;13.10;6.18;;;;;;;16.00;100.00;99759.44;5213520;27;20355;-87
2024/04/09 00:41:17;;;;;;;19.00;6.57;;;;;;;16.02;100.00;99744.41;5209478;27;20007;-88
2024/04/09 00:43:43;;;;;;;12.43;5.57;;;;;;;15.99;100.00;99756.88;5207177;27;20101;-89
2024/04/09 00:46:13;;;;;;;14.77;6.03;;;;;;;16.01;100.00;99762.97;5221046;27;20426;-85
2024/04/09 00:48:41;;;;;;;11.25;6.13;;;;;;;16.09;100.00;99762.56;5214735;27;20014;-85
2024/04/09 00:51:12;;;;;;;11.15;5.80;;;;;;;16.12;100.00;99757.16;5210054;27;20003;-86
2024/04/09 00:53:39;;;;;;;13.63;5.45;;;;;;;16.13;100.00;99764.16;5184628;27;20026;-87
2024/04/09 00:56:09;;;;;;;8.13;4.90;;;;;;;16.09;100.00;99757.28;5214269;27;20003;-87
2024/04/09 00:58:35;;;;;;;10.40;5.95;;;;;;;16.08;100.00;99763.53;5216827;27;20015;-86
2024/04/09 01:01:04;;;;;;;16.98;6.00;;;;;;;16.11;100.00;99758.09;5212386;27;20618;-85
2024/04/09 01:03:30;;;;;;;10.77;6.30;;;;;;;16.12;100.00;99759.81;5175626;27;20019;-87
2024/04/09 01:05:59;;;;;;;10.60;6.75;;;;;;;16.09;100.00;99757.28;5212491;27;20019;-86
2024/04/09 01:08:25;;;;;;;11.50;5.20;;;;;;;16.09;100.00;99754.66;5213652;27;20476;-87
2024/04/09 01:10:53;;;;;;;10.82;6.22;;;;;;;15.96;100.00;99751.75;5214933;27;20003;-88
2024/04/09 01:13:19;;;;;;;14.98;5.78;;;;;;;16.04;100.00;99757.53;5210407;27;20471;-86
2024/04/09 01:15:47;;;;;;;8.88;5.47;;;;;;;16.06;100.00;99755.69;5190108;27;20035;-88
2024/04/09 01:18:12;;;;;;;11.55;6.63;;;;;;;16.06;100.00;99750.41;5213652;27;20475;-87
2024/04/09 01:20:41;;;;;;;12.43;7.32;;;;;;;16.10;100.00;99740.53;5210065;27;20712;-87
2024/04/09 01:23:07;;;;;;;12.20;6.45;;;;;;;16.10;100.00;99741.41;5241184;27;20015;-84
2024/04/09 01:25:36;;;;;;;13.43;6.32;;;;;;;16.08;100.00;99759.09;5189924;27;20014;-84
2024/04/09 01:28:04;;;;;;;13.52;6.65;;;;;;;16.06;100.00;99758.31;5216773;27;20457;-88
2024/04/09 01:30:32;;;;;;;13.38;6.03;;;;;;;16.08;100.00;99755.59;5217515;27;20416;-87
2024/04/09 01:32:58;;;;;;;13.73;6.60;;;;;;;16.07;100.00;99756.53;5190488;27;20027;-86
2024/04/09 01:35:26;;;;;;;7.45;5.57;;;;;;;16.05;100.00;99753.97;5192636;27;20011;-86
2024/04/09 01:37:51;;;;;;;11.50;6.20;;;;;;;16.10;100.00;99751.97;5201075;27;20007;-87
2024/04/09 01:40:20;;;;;;;15.65;5.82;;;;;;;16.07;100.00;99746.81;5190505;27;19998;-87
2024/04/09 01:42:45;;;;;;;11.85;6.50;;;;;;;16.08;100.00;99745.88;5210541;27;20055;-85
2024/04/09 01:45:13;;;;;;;14.90;7.05;;;;;;;16.02;100.00;99741.75;5183720;27;19999;-84
2024/04/09 01:47:39;;;;;;;14.27;5.97;;;;;;;16.06;100.00;99745.13;5186419;27;20003;-87
2024/04/09 01:50:10;;;;;;;9.88;6.95;;;;;;;16.01;100.00;99733.91;5216887;27;20090;-88
2024/04/09 01:52:36;;;;;;;11.25;6.63;;;;;;;16.01;100.00;99739.19;5238501;27;20959;-88
2024/04/09 01:55:06;;;;;;;13.35;6.85;;;;;;;16.02;100.00;99736.47;5189409;27;20026;-85
2024/04/09 01:57:32;;;;;;;12.55;6.32;;;;;;;16.03;100.00;99742.59;5216334;27;20022;-87
2024/04/09 02:00:05;;;;;;;11.38;6.53;;;;;;;16.08;100.00;99743.25;5185070;27;20021;-86
2024/04/09 02:02:31;;;;;;;11.20;6.60;;;;;;;16.14;100.00;99735.06;5216994;27;19999;-87
2024/04/09 02:05:00;;;;;;;8.43;5.03;;;;;;;16.16;100.00;99730.53;5181980;27;20016;-87
2024/04/09 02:07:25;;;;;;;11.82;6.45;;;;;;;16.18;100.00;99722.56;5184443;27;20011;-85
2024/04/09 02:09:54;;;;;;;13.63;6.50;;;;;;;16.20;100.00;99725.97;5189648;27;19999;-87
2024/04/09 02:12:19;;;;;;;10.85;6.40;;;;;;;16.23;100.00;99717.06;5223180;27;20459;-88
2024/04/09 02:14:48;;;;;;;10.10;5.50;;;;;;;16.25;100.00;99720.50;5223724;27;20014;-88
2024/04/09 02:17:14;;;;;;;7.60;5.05;;;;;;;16.25;100.00;99718.69;5193198;27;20633;-87
2024/04/09 02:19:42;;;;;;;8.63;5.32;;;;;;;16.26;100.00;99706.38;5241542;27;20007;-87
2024/04/09 02:22:08;;;;;;;14.80;6.55;;;;;;;16.31;100.00;99710.47;5241833;27;20019;-87
2024/04/09 02:24:36;;;;;;;10.63;5.90;;;;;;;16.27;100.00;99703.66;5188964;27;20196;-88
2024/04/09 02:27:03;;;;;;;7.43;4.85;;;;;;;16.30;100.00;99703.47;5242711;27;20798;-87
2024/04/09 02:29:33;;;;;;;12.18;6.40;;;;;;;16.33;100.00;99700.69;5189413;27;20002;-87
2024/04/09 02:31:59;;;;;;;11.10;6.28;;;;;;;16.37;100.00;99696.13;5206289;27;20014;-87
2024/04/09 02:34:27;;;;;;;8.68;4.63;;;;;;;16.36;100.00;99695.28;5220091;27;20035;-85
2024/04/09 02:36:53;;;;;;;15.60;5.47;;;;;;;16.44;100.00;99697.53;5188172;27;20018;-88
2024/04/09 02:39:22;;;;;;;11.27;4.20;;;;;;;16.46;100.00;99708.88;5221527;27;20007;-86
2024/04/09 02:41:47;;;;;;;8.48;4.20;;;;;;;16.44;100.00;99718.69;5183147;27;20035;-86
2024/04/09 02:44:16;;;;;;;16.50;6.18;;;;;;;16.48;100.00;99714.94;5217417;27;20019;-87
2024/04/09 02:46:41;;;;;;;11.23;5.50;;;;;;;16.54;100.00;99719.06;5186871;27;22247;-88
2024/04/09 02:49:10;;;;;;;14.15;4.80;;;;;;;16.55;100.00;99710.22;5189324;27;20051;-89
2024/04/09 02:51:36;;;;;;;9.63;4.15;;;;;;;16.58;100.00;99722.44;5190829;27;20019;-88
2024/04/09 02:54:04;;;;;;;13.98;4.13;;;;;;;16.60;100.00;99736.44;5213894;27;20004;-86
2024/04/09 02:56:30;;;;;;;10.15;4.50;;;;;;;16.64;100.00;99754.69;5212761;27;20434;-84
2024/04/09 02:58:58;;;;;;;10.70;5.30;;;;;;;16.59;100.00;99745.28;5216254;27;20007;-86
2024/04/09 03:01:24;;;;;;;16.65;5.60;;;;;;;16.57;100.00;99770.91;5193389;27;20014;-87
2024/04/09 03:03:52;;;;;;;11.27;5.40;;;;;;;16.50;100.00;99759.78;5192939;27;19991;-88
2024/04/09 03:06:18;;;;;;;12.35;5.40;;;;;;;16.45;100.00;99762.66;5221179;27;20023;-85
2024/04/09 03:08:47;;;;;;;8.80;4.82;;;;;;;16.37;100.00;99760.38;5191402;27;20003;-86
2024/04/09 03:11:19;;;;;;;13.07;5.80;;;;;;;16.40;100.00;99751.47;5203354;27;20007;-87
2024/04/09 03:13:50;;;;;;;9.98;5.18;;;;;;;16.37;100.00;99757.75;5214187;27;20053;-88
2024/04/09 03:16:21;;;;;;;11.30;5.50;;;;;;;16.31;100.00;99744.81;5187070;27;19999;-85
2024/04/09 03:18:53;;;;;;;20.35;5.70;;;;;;;16.34;100.00;99717.41;5196984;27;20022;-87
2024/04/09 03:21:19;;;;;;;16.55;5.93;;;;;;;16.31;100.00;99722.81;5199628;27;20007;-88
2024/04/09 03:23:47;;;;;;;13.73;5.88;;;;;;;16.24;100.00;99732.81;5193543;27;20050;-86
2024/04/09 03:26:13;;;;;;;6.15;4.53;;;;;;;16.18;100.00;99714.66;5218710;27;20018;-86
2024/04/09 03:28:42;;;;;;;8.98;5.95;;;;;;;16.23;100.00;99717.94;5197072;27;20007;-89
2024/04/09 03:31:08;;;;;;;14.75;6.50;;;;;;;16.20;100.00;99723.34;5189540;27;20008;-85
2024/04/09 03:33:37;;;;;;;14.73;6.85;;;;;;;16.23;100.00;99719.69;5221754;27;20008;-87
2024/04/09 03:36:07;;;;;;;13.60;6.55;;;;;;;16.15;100.00;99698.94;5202368;27;20014;-86
2024/04/09 03:38:39;;;;;;;13.20;6.47;;;;;;;16.10;100.00;99688.59;5199618;27;20035;-88
2024/04/09 03:41:09;;;;;;;16.67;6.38;;;;;;;16.09;100.00;99686.88;5192678;27;20022;-87
2024/04/09 03:43:35;;;;;;;11.00;6.20;;;;;;;16.08;100.00;99695.72;5209890;27;20022;-87
2024/04/09 03:46:13;;;;;;;12.43;6.78;;;;;;;16.08;100.00;99671.97;5218722;27;20452;-85
2024/04/09 03:48:46;;;;;;;16.85;7.30;;;;;;;16.07;100.00;99672.03;5195613;27;20023;-85
2024/04/09 03:51:21;;;;;;;11.15;6.07;;;;;;;16.07;100.00;99670.25;5225952;27;20000;-87
2024/04/09 03:53:47;;;;;;;10.30;6.22;;;;;;;16.01;100.00;99673.22;5167192;27;20058;-85
2024/04/09 03:56:16;;;;;;;9.35;6.40;;;;;;;16.01;100.00;99673.22;5218885;27;20007;-87
2024/04/09 03:58:44;;;;;;;11.57;6.43;;;;;;;15.91;100.00;99678.03;5222427;27;20011;-86
2024/04/09 04:01:13;;;;;;;15.40;6.38;;;;;;;15.85;100.00;99675.69;5223999;27;20011;-89
2024/04/09 04:03:48;;;;;;;10.90;6.82;;;;;;;15.86;100.00;99664.22;5189901;27;20022;-88
2024/04/09 04:06:17;;;;;;;15.02;6.03;;;;;;;15.84;100.00;99664.28;5192146;27;20043;-88
2024/04/09 04:08:44;;;;;;;10.43;6.00;;;;;;;15.84;100.00;99668.72;5218657;27;20011;-86
2024/04/09 04:11:16;;;;;;;13.98;6.70;;;;;;;15.73;100.00;99669.16;5211720;27;20047;-88
2024/04/09 04:13:42;;;;;;;14.00;6.85;;;;;;;15.75;100.00;99663.81;5191458;27;20014;-86
2024/04/09 04:16:16;;;;;;;14.98;6.30;;;;;;;15.75;100.00;99666.44;5219681;26;20064;-86
2024/04/09 04:18:43;;;;;;;;;;;;;;;15.74;100.00;99660.31;5215119;27;20004;-86
2024/04/09 04:21:18;;;;;;;10.63;5.88;;;;;;;15.68;100.00;99665.88;5214899;27;19964;-86
2024/04/09 04:23:46;;;;;;;14.00;6.13;;;;;;;15.74;100.00;99662.13;5209911;27;20007;-86
2024/04/09 04:26:21;;;;;;;17.95;6.57;;;;;;;15.77;100.00;99669.88;5215316;27;20011;-86
2024/04/09 04:28:49;;;;;;;16.35;6.57;;;;;;;15.79;100.00;99658.34;5211742;27;20015;-89
2024/04/09 04:31:20;;;;;;;24.08;8.05;;;;;;;15.78;100.00;99653.97;5200974;27;20062;-88
2024/04/09 04:33:47;;;;;;;14.35;6.35;;;;;;;15.79;100.00;99645.13;5222757;27;20006;-88
2024/04/09 04:36:17;;;;;;;14.98;6.22;;;;;;;15.77;100.00;99652.25;5241490;27;20007;-89
2024/04/09 04:38:48;;;;;;;9.43;5.70;;;;;;;15.74;100.00;99646.28;5201080;27;20002;-87
2024/04/09 04:41:17;;;;;;;7.82;5.57;;;;;;;15.72;100.00;99651.63;5221895;27;20007;-86
2024/04/09 04:43:43;;;;;;;11.82;5.20;;;;;;;15.77;100.00;99648.78;5196344;27;20325;-87
2024/04/09 04:46:11;;;;;;;11.30;6.63;;;;;;;15.82;100.00;99654.72;5227737;27;20010;-86
2024/04/09 04:48:37;;;;;;;10.73;5.38;;;;;;;15.86;100.00;99656.28;5224346;27;20028;-86
2024/04/09 04:51:08;;;;;;;14.30;6.32;;;;;;;15.90;100.00;99649.94;5179418;27;20035;-85
2024/04/09 04:53:35;;;;;;;12.55;5.47;;;;;;;15.95;100.00;99650.56;5191710;27;20003;-85
2024/04/09 04:56:03;;;;;;;10.88;4.90;;;;;;;16.04;100.00;99658.06;5532272;22;20007;-86
2024/04/09 04:58:29;;;;;;;16.00;5.00;;;;;;;16.12;100.00;99659.47;5259684;27;19995;-86
2024/04/09 05:00:58;;;;;;;14.85;4.78;;;;;;;16.15;100.00;99661.97;5220252;27;20004;-86
2024/04/09 05:03:24;;;;;;;10.80;4.10;;;;;;;16.20;100.00;99662.59;5240677;27;20438;-86
2024/04/09 05:05:53;;;;;;;18.08;5.82;;;;;;;16.23;100.00;99651.91;5239773;27;20000;-87
2024/04/09 05:08:24;;;;;;;12.95;5.65;;;;;;;16.29;100.00;99661.31;5241633;27;20007;-85
2024/04/09 05:10:53;;;;;;;11.30;5.45;;;;;;;16.30;100.00;99657.75;5226587;27;20007;-87
2024/04/09 05:13:19;;;;;;;11.82;5.45;;;;;;;16.28;100.00;99667.50;5244441;27;20076;-87
2024/04/09 05:15:48;;;;;;;21.13;5.68;;;;;;;16.31;100.00;99670.00;5216067;27;19999;-86
2024/04/09 05:18:14;;;;;;;12.90;4.93;;;;;;;16.36;100.00;99673.28;5248899;27;20007;-85
2024/04/09 05:20:42;;;;;;;16.27;5.55;;;;;;;16.36;100.00;99670.63;5230745;27;20014;-87
2024/04/09 05:23:08;;;;;;;11.40;4.93;;;;;;;16.43;100.00;99677.34;5242539;27;19999;-87
2024/04/09 05:25:36;;;;;;;10.30;5.15;;;;;;;16.49;100.00;99686.72;5241369;27;19999;-86
2024/04/09 05:28:02;;;;;;;12.20;6.13;;;;;;;16.48;100.00;99685.91;5230486;27;20622;-86
2024/04/09 05:30:31;;;;;;;13.63;5.20;;;;;;;16.53;100.00;99696.22;5241148;27;20223;-86
2024/04/09 05:32:57;;;;;;;12.85;5.32;;;;;;;16.56;100.00;99717.22;5244799;27;20009;-86
2024/04/09 05:35:26;;;;;;;22.48;7.10;;;;;;;16.58;100.00;99725.06;5244876;27;20006;-88
2024/04/09 05:37:51;;;;;;;19.30;6.32;;;;;;;16.58;100.00;99738.28;5219694;27;20007;-87
2024/04/09 05:40:20;;;;;;;15.98;4.90;;;;;;;16.70;100.00;99759.69;5218356;27;20010;-85
2024/04/09 05:42:46;;;;;;;17.70;5.35;;;;;;;16.75;97.93;99774.44;5222821;27;20471;-86
2024/04/09 05:45:24;;;;;;;12.38;4.05;;;;;;;16.96;89.55;99781.38;5246497;27;20007;-87
2024/04/09 05:47:49;;;;;;;18.30;4.28;;;;;;;17.14;87.25;99776.97;5208774;27;20017;-86
2024/04/09 05:50:34;;;;;;;;;;;;;;;;;;;;;
2024/04/09 05:53:03;;;;;;;15.35;4.82;;;;;;;17.40;81.00;99768.63;5236031;27;20059;-88
2024/04/09 05:55:32;;;;;;;10.85;4.15;;;;;;;17.50;81.15;99783.09;5221251;27;20018;-85
2024/04/09 05:57:58;;;;;;;23.33;5.28;;;;;;;17.52;79.18;99775.91;5191763;27;19999;-86
2024/04/09 06:00:27;;;;;;;19.73;6.03;;;;;;;17.59;79.02;99777.31;5185472;27;20015;-85
2024/04/09 06:02:53;;;;;;;15.77;4.55;;;;;;;17.64;78.85;99785.03;5219577;27;20042;-86
2024/04/09 06:05:22;;;;;;;15.98;4.38;;;;;;;17.69;78.04;99794.41;5210813;27;20011;-84
2024/04/09 06:07:48;;;;;;;21.45;4.28;;;;;;;17.74;77.21;99802.09;5247608;27;20018;-85
2024/04/09 06:10:18;;;;;;;21.67;5.72;;;;;;;17.79;76.10;99808.00;5215983;27;20018;-86
2024/04/09 06:12:44;;;;;;;22.42;4.78;;;;;;;17.83;74.90;99809.59;5215696;27;20012;-85
2024/04/09 06:15:12;;;;;;;27.35;4.55;;;;;;;17.93;74.15;99803.84;5215104;27;20452;-83
2024/04/09 06:17:38;;;;;;;9.65;3.25;;;;;;;17.98;72.05;99813.22;5197077;27;20573;-86
2024/04/09 06:20:09;;;;;;;20.08;4.57;;;;;;;18.01;71.62;99818.34;5191010;27;20089;-85
2024/04/09 06:22:35;;;;;;;15.90;4.53;;;;;;;18.08;70.90;99831.28;5225533;27;20058;-84
2024/04/09 06:25:03;;;;;;;19.48;4.50;;;;;;;18.07;70.27;99835.72;5219933;27;20022;-87
2024/04/09 06:27:31;;;;;;;18.10;3.55;;;;;;;18.08;70.86;99837.44;5227052;27;20014;-88
2024/04/09 06:30:00;;;;;;;17.48;4.78;;;;;;;18.01;71.79;99836.91;5211852;27;20035;-86
2024/04/09 06:32:27;;;;;;;16.55;4.95;;;;;;;18.02;72.99;99835.97;5219347;27;20376;-86
2024/04/09 06:34:56;;;;;;;18.98;4.15;;;;;;;17.99;73.34;99841.44;5239634;27;20007;-86
2024/04/09 06:37:22;;;;;;;18.15;5.45;;;;;;;17.95;73.76;99834.59;5220364;27;20018;-86
2024/04/09 06:39:53;;;;;;;14.43;4.82;;;;;;;17.95;74.61;99833.72;5213236;27;20031;-85
2024/04/09 06:42:19;;;;;;;13.90;4.20;;;;;;;17.91;75.18;99832.97;5191344;27;20054;-87
2024/04/09 06:44:48;;;;;;;22.23;4.90;;;;;;;17.86;75.75;99814.72;5228677;27;20047;-85
2024/04/09 06:47:14;;;;;;;11.18;3.42;;;;;;;17.78;76.45;99806.31;5212562;27;20148;-87
2024/04/09 06:49:43;;;;;;;9.32;3.60;;;;;;;17.77;76.99;99804.59;5211996;27;20011;-86
2024/04/09 06:52:09;;;;;;;15.57;4.53;;;;;;;17.69;78.12;99802.38;5202290;27;20047;-86
2024/04/09 06:54:38;;;;;;;14.27;4.47;;;;;;;17.66;78.12;99805.19;5205805;27;20019;-88
2024/04/09 06:57:03;;;;;;;17.05;4.57;;;;;;;17.66;78.70;99804.31;5224486;27;20472;-87
2024/04/09 06:59:33;;;;;;;14.50;3.45;;;;;;;17.59;79.40;99806.41;5211251;27;20007;-86
2024/04/09 07:01:58;;;;;;;15.18;4.28;;;;;;;17.62;79.33;99839.81;5204846;27;20105;-86
2024/04/09 07:04:27;;;;;;;17.17;5.85;;;;;;;17.56;79.64;99821.59;5234658;27;20048;-87
2024/04/09 07:06:52;;;;;;;15.40;5.35;;;;;;;17.62;79.79;99829.22;5210266;27;20047;-88
2024/04/09 07:09:22;;;;;;;13.35;3.95;;;;;;;17.59;79.79;99835.53;5211817;27;20373;-85
2024/04/09 07:11:48;;;;;;;9.27;2.58;;;;;;;17.65;79.68;99826.41;5222798;27;20003;-86
2024/04/09 07:14:16;;;;;;;6.60;2.70;;;;;;;17.66;80.12;99830.78;5215004;27;20014;-87
2024/04/09 07:16:46;;;;;;;7.55;2.20;;;;;;;17.68;80.19;99845.63;5217052;27;20063;-86
2024/04/09 07:19:20;;;;;;;7.10;2.38;;;;;;;17.75;80.26;99832.94;5215498;27;20017;-85
2024/04/09 07:21:46;;;;;;;6.82;2.65;;;;;;;17.75;79.90;99851.47;5214107;27;20006;-87
2024/04/09 07:24:14;;;;;;;10.07;3.22;;;;;;;17.77;79.99;99851.38;5214509;27;19999;-85
2024/04/09 07:26:40;;;;;;;9.20;3.40;;;;;;;17.80;80.53;99862.69;5212550;27;20022;-87
2024/04/09 07:29:08;;;;;;;9.60;2.28;;;;;;;17.81;80.36;99888.22;5211193;27;19999;-83
2024/04/09 07:31:34;;;;;;;8.43;2.97;;;;;;;17.87;80.17;99881.75;5214770;27;20002;-88
2024/04/09 07:34:03;;;;;;;12.38;3.10;;;;;;;17.93;80.27;99880.63;5223282;27;20031;-86
2024/04/09 07:36:31;;;;;;;11.00;3.05;;;;;;;17.96;79.93;99907.78;5217669;27;20011;-87
2024/04/09 07:39:07;;;;;;;11.52;2.40;;;;;;;18.04;79.50;99915.31;5219623;27;20034;-87
2024/04/09 07:41:37;;;;;;;10.15;3.13;;;;;;;18.05;80.14;99922.34;5188199;27;20010;-86
2024/04/09 07:44:06;;;;;;;12.02;2.67;;;;;;;18.05;80.00;99910.91;5221019;27;20001;-87
2024/04/09 07:46:31;;;;;;;12.13;3.35;;;;;;;18.08;80.05;99911.59;5209265;27;20015;-86
2024/04/09 07:49:00;;;;;;;12.40;3.58;;;;;;;18.03;80.12;99908.34;5235636;27;20003;-84
2024/04/09 07:51:29;;;;;;;10.48;3.72;;;;;;;18.16;78.93;99906.75;5182834;27;20073;-86
2024/04/09 07:53:57;;;;;;;8.45;3.88;;;;;;;18.22;78.95;99917.97;5211078;27;20012;-85
2024/04/09 07:56:24;;;;;;;8.68;3.03;;;;;;;18.23;79.18;99922.34;5183766;27;19991;-87
2024/04/09 07:58:52;;;;;;;10.35;3.40;;;;;;;18.51;77.84;99921.69;5159977;27;20059;-87
2024/04/09 08:01:20;;;;;;;10.73;2.78;;;;;;;18.93;75.50;99923.00;5208986;27;19999;-86
2024/04/09 08:03:48;;;;;;;6.25;2.67;;;;;;;18.86;75.25;99926.88;5213211;27;20019;-85
2024/04/09 08:06:14;;;;;;;7.45;2.33;;;;;;;18.64;76.18;99922.78;5214187;27;20006;-85
2024/04/09 08:08:42;;;;;;;8.93;2.75;;;;;;;18.63;76.64;99913.09;5214596;27;20026;-83
2024/04/09 08:11:09;;;;;;;8.68;2.75;;;;;;;18.47;77.34;99923.69;5181712;27;20051;-90
2024/04/09 08:13:38;;;;;;;10.05;3.28;;;;;;;18.52;77.17;99923.41;5205442;27;20014;-87
2024/04/09 08:16:08;;;;;;;6.10;2.65;;;;;;;18.44;77.57;99921.19;5209173;27;20006;-87
2024/04/09 08:18:39;;;;;;;8.30;2.33;;;;;;;18.40;77.98;99913.50;5247838;27;20014;-87
2024/04/09 08:21:09;;;;;;;7.00;2.15;;;;;;;18.39;78.05;99911.78;5212144;27;20324;-88
2024/04/09 08:23:39;;;;;;;9.13;2.83;;;;;;;18.42;77.98;99912.47;5207646;27;19999;-85
2024/04/09 08:26:05;;;;;;;4.93;1.67;;;;;;;18.41;77.83;99925.78;5214101;27;20077;-89
2024/04/09 08:28:33;;;;;;;5.03;2.17;;;;;;;18.28;78.44;99933.53;5216068;27;20015;-86
2024/04/09 08:31:05;;;;;;;5.38;2.05;;;;;;;18.24;78.83;99943.44;5215599;27;20968;-90
2024/04/09 08:33:34;;;;;;;6.72;1.70;;;;;;;18.25;78.97;99945.16;5175888;27;20018;-87
2024/04/09 08:36:04;;;;;;;8.80;2.15;;;;;;;18.37;78.64;99956.91;5188677;27;20483;-86
2024/04/09 08:38:32;;;;;;;12.43;1.92;;;;;;;18.43;78.60;99967.16;5222083;27;20013;-86
2024/04/09 08:40:58;;;;;;;6.88;2.38;;;;;;;18.43;78.19;99980.41;5185854;27;20011;-83
2024/04/09 08:43:27;;;;;;;10.55;3.00;;;;;;;18.43;78.82;99979.56;5214709;27;20007;-85
2024/04/09 08:45:53;;;;;;;10.15;2.78;;;;;;;18.40;78.96;99977.94;5183824;27;20003;-89
2024/04/09 08:48:26;;;;;;;7.65;2.78;;;;;;;18.37;78.41;99987.81;5185508;27;20495;-88
2024/04/09 08:50:55;;;;;;;7.40;2.10;;;;;;;18.26;79.76;99996.34;5209703;27;20003;-88
2024/04/09 08:53:26;;;;;;;7.88;2.83;;;;;;;18.18;79.26;100010.81;5213226;27;20293;-86
2024/04/09 08:55:52;;;;;;;17.00;4.00;;;;;;;18.09;79.69;100021.88;5214580;27;20031;-87
2024/04/09 08:58:21;;;;;;;8.02;3.50;;;;;;;18.33;78.60;100021.59;5208756;27;20023;-88
2024/04/09 09:00:47;;;;;;;11.32;2.63;;;;;;;18.54;77.09;100032.88;5212923;27;20026;-88
2024/04/09 09:06:04;;;;;;;7.82;3.80;;;;;;;18.95;75.58;100045.75;5298018;26;20016;-85
2024/04/09 09:08:42;;;;;;;5.88;3.35;;;;;;;19.35;74.24;100045.38;5285098;27;20009;-87
2024/04/09 09:11:12;;;;;;;9.85;4.65;;;;;;;19.58;72.95;100049.41;5275641;27;20009;-89
2024/04/09 09:13:38;;;;;;;10.15;4.82;;;;;;;19.89;71.46;100037.06;5278882;26;20006;-87
2024/04/09 09:16:11;;;;;;;13.93;6.68;;;;;;;19.63;71.77;100043.84;5277908;26;20008;-84
2024/04/09 09:18:38;;;;;;;9.52;5.63;;;;;;;19.34;73.27;100049.81;5294935;26;20583;-84
2024/04/09 09:21:07;;;;;;;9.65;5.97;;;;;;;19.80;71.99;100049.06;5246945;27;20001;-84
2024/04/09 09:23:34;;;;;;;9.57;6.10;;;;;;;19.99;71.34;100054.19;5252510;27;20091;-84
2024/04/09 09:26:05;;;;;;;12.82;6.97;;;;;;;20.96;67.65;100049.34;5278479;26;20053;-85
2024/04/09 09:28:31;;;;;;;12.23;6.97;;;;;;;20.87;67.55;100042.81;5254638;26;20600;-84
2024/04/09 09:31:01;;;;;;;8.05;6.90;;;;;;;20.79;67.63;100042.41;5246616;26;20080;-83
2024/04/09 09:33:29;;;;;;;7.85;6.78;;;;;;;20.08;69.28;100039.50;5279730;27;20012;-84
2024/04/09 09:35:59;;;;;;;9.27;7.22;;;;;;;20.15;69.21;100053.28;5257744;27;20366;-85
2024/04/09 09:38:26;;;;;;;11.18;7.47;;;;;;;19.74;70.64;100045.91;5278225;27;20024;-84
2024/04/09 09:40:57;;;;;;;12.52;8.30;;;;;;;19.54;71.71;100045.19;5255020;26;20078;-86
2024/04/09 09:43:24;;;;;;;10.48;8.30;;;;;;;19.30;73.13;100052.75;5252966;27;20003;-84
2024/04/09 09:45:53;;;;;;;9.95;8.35;;;;;;;19.27;73.73;100058.22;5277415;26;20118;-86
2024/04/09 09:48:23;;;;;;;10.05;7.32;;;;;;;19.73;72.90;100049.50;5251497;27;20024;-86
2024/04/09 09:50:51;;;;;;;8.82;7.95;;;;;;;19.61;72.43;100049.22;5282342;26;20005;-84
2024/04/09 09:53:18;;;;;;;11.95;9.00;;;;;;;20.17;70.96;100056.72;5278639;27;20017;-85
2024/04/09 09:55:47;;;;;;;12.43;8.57;;;;;;;20.60;68.93;100054.16;5247696;26;20045;-85
2024/04/09 09:58:19;;;;;;;11.68;7.53;;;;;;;20.81;68.14;100059.16;5277033;27;20021;-85
2024/04/09 10:00:50;;;;;;;12.90;7.93;;;;;;;20.85;67.51;100078.44;5275919;26;20060;-84
2024/04/09 10:03:16;;;;;;;11.63;8.30;;;;;;;21.09;66.61;100076.94;5274124;27;20473;-85
2024/04/09 10:05:45;;;;;;;12.55;7.18;;;;;;;20.46;68.54;100078.91;5272645;26;20002;-84
2024/04/09 10:08:21;;;;;;;14.13;9.05;;;;;;;20.53;68.91;100079.41;5259428;27;20013;-84
2024/04/09 10:10:53;;;;;;;13.05;8.18;;;;;;;20.22;69.33;100070.59;5284459;26;20334;-86
2024/04/09 10:13:20;;;;;;;10.57;7.35;;;;;;;20.31;69.03;100070.06;5274805;26;20006;-84
2024/04/09 10:15:50;;;;;;;6.25;5.35;;;;;;;19.86;69.23;100077.09;5279001;26;20018;-84
2024/04/09 10:18:37;;;;;;;6.85;4.97;;;;;;;19.44;70.72;100086.50;5244088;27;20327;-86
2024/04/09 10:21:05;;;;;;;5.95;4.43;;;;;;;19.15;71.78;100094.22;5280701;26;20014;-84
2024/04/09 10:23:36;;;;;;;8.95;4.07;;;;;;;19.27;72.02;100093.56;5286268;26;20017;-85
2024/04/09 10:26:06;;;;;;;8.25;4.15;;;;;;;19.30;71.81;100089.91;5250397;27;20006;-86
2024/04/09 10:28:35;;;;;;;3.95;3.60;;;;;;;19.41;71.20;100090.19;5273104;26;20020;-86
2024/04/09 10:31:09;;;;;;;10.10;4.03;;;;;;;19.15;71.92;100100.41;5239044;26;20021;-86
2024/04/09 10:33:38;;;;;;;5.10;3.60;;;;;;;19.11;73.08;100125.38;5270615;27;20006;-84
2024/04/09 10:36:08;;;;;;;4.75;3.92;;;;;;;19.01;73.17;100127.66;5256622;26;20087;-86
2024/04/09 10:38:37;;;;;;;4.93;3.30;;;;;;;18.88;74.20;100131.84;5252804;26;20006;-85
2024/04/09 10:41:07;;;;;;;5.43;3.85;;;;;;;18.92;74.38;100127.28;5247061;27;20022;-86
2024/04/09 10:43:35;;;;;;;5.15;4.03;;;;;;;18.87;75.27;100131.94;5244568;27;20016;-85
2024/04/09 10:46:07;;;;;;;6.50;4.55;;;;;;;18.77;76.12;100132.44;5272968;27;20006;-86
2024/04/09 10:48:33;;;;;;;6.50;3.80;;;;;;;18.78;76.68;100141.22;5250867;27;20337;-84
2024/04/09 10:51:04;;;;;;;4.28;3.60;;;;;;;18.80;75.88;100150.81;5293530;27;20018;-85
2024/04/09 10:53:35;;;;;;;5.82;3.88;;;;;;;18.83;75.95;100155.94;5282807;26;20013;-85
2024/04/09 10:56:05;;;;;;;7.00;3.22;;;;;;;18.25;76.79;100162.41;5269141;27;20443;-84
2024/04/09 10:58:31;;;;;;;4.22;3.83;;;;;;;18.19;77.87;100162.69;5251620;26;20540;-84
2024/04/09 11:00:59;;;;;;;6.82;3.50;;;;;;;18.04;79.01;100169.56;5273636;27;20008;-87
2024/04/09 11:03:26;;;;;;;4.50;3.05;;;;;;;17.91;79.15;100166.63;5272265;26;20002;-86
2024/04/09 11:05:54;;;;;;;5.72;2.83;;;;;;;17.78;79.85;100169.00;5303889;26;20002;-85
2024/04/09 11:08:41;;;;;;;4.28;3.67;;;;;;;17.66;81.34;100203.97;5272925;26;20333;-87
2024/04/09 11:11:08;;;;;;;4.28;1.40;;;;;;;16.79;87.52;100222.69;5251363;27;20017;-86
2024/04/09 11:13:37;;;;;;;4.15;1.77;;;;;;;16.29;95.94;100240.53;5276726;27;20476;-85
2024/04/09 11:16:03;;;;;;;2.13;1.15;;;;;;;15.88;100.00;100246.50;5244369;26;20012;-86
2024/04/09 11:18:32;;;;;;;3.50;1.10;;;;;;;15.55;100.00;100245.94;5254281;26;20329;-86
2024/04/09 11:21:03;;;;;;;1.23;1.13;;;;;;;15.32;100.00;100258.16;5276397;27;20016;-87
2024/04/09 11:23:32;;;;;;;2.30;1.10;;;;;;;15.00;100.00;100265.38;5284618;26;20517;-85
2024/04/09 11:25:59;;;;;;;3.70;1.23;;;;;;;14.88;100.00;100263.19;5281068;26;20010;-85
2024/04/09 11:28:29;;;;;;;2.65;2.13;;;;;;;14.83;100.00;100273.00;5292419;26;20017;-85
2024/04/09 11:30:56;;;;;;;2.00;1.20;;;;;;;14.80;100.00;100291.56;5306156;26;20535;-84
2024/04/09 11:33:26;;;;;;;3.15;1.45;;;;;;;14.69;100.00;100282.22;5260540;26;20048;-85